KOWD/OWD METAR and TAF weather

Enter ICAO airport designator
Station Type Date Time Source
KOWD METAR 2023/01/30 10:53 UTC NOAA

KOWD 301053Z AUTO 00000KT 10SM CLR 01/M02 A3014 RMK AO2 SLP207 T00061017


Station Type Date Time Source
KOWD Decoded METAR 2023/01/30 10:53 UTC NOAA

NORWOOD MEMORIAL AIRPORT, MA, United States (KOWD) 42-11N 71-10W 19M
Jan 30, 2023 - 05:53 AM EST / 2023.01.30 1053 UTC
Wind: Calm:0
Visibility: 10 mile(s):0
Sky conditions: clear
Temperature: 33.1 F (0.6 C)
Dew Point: 28.9 F (-1.7 C)
Relative Humidity: 84%
Pressure (altimeter): 30.14 in. Hg (1020 hPa)
ob: KOWD 301053Z AUTO 00000KT 10SM CLR 01/M02 A3014 RMK AO2 SLP207 T00061017
cycle: 11

Station Type Date Time Source
KOWD TAF UTC NOAA

Error!

Example: see airport list